Time;durP1;ratioP1;P1;durP2;ratioP2;P2;SDS_P1;SDS_P2;PMS_P1;PMS_P2;Temp;Humidity;BMP_temperature;BMP_pressure;BME280_temperature;BME280_humidity;BME280_pressure;Samples;Min_cycle;Max_cycle;Signal;HPM_P1;HPM_P2
2022/11/13 08:40:45;;;;;;;112.85;101.07;;;;;;;9.30;100.00;102779.50;4988187;28;20430;-87
2022/11/13 09:03:05;;;;;;;115.65;105.68;;;;;;;11.02;100.00;102762.41;5052395;28;20051;-87
2022/11/13 09:23:31;;;;;;;;;;;;;;;;;;;;;
2022/11/13 09:39:53;;;;;;;136.52;124.68;;;;;;;11.22;100.00;102731.06;4734637;30;20103;-88
2022/11/13 09:52:29;;;;;;;129.38;117.50;;;;;;;11.20;100.00;102722.44;4782971;29;20129;-89
2022/11/13 10:12:49;;;;;;;125.28;113.35;;;;;;;11.34;100.00;102702.34;4936510;29;20121;-87
2022/11/13 11:32:33;;;;;;;117.88;107.07;;;;;;;11.48;100.00;102607.75;4945071;29;20050;-88
2022/11/13 11:49:25;;;;;;;117.20;106.78;;;;;;;11.31;100.00;102606.91;4760678;29;20061;-91
2022/11/13 11:56:26;;;;;;;115.10;105.20;;;;;;;11.39;100.00;102594.44;4838691;29;20074;-90
2022/11/13 12:41:11;;;;;;;114.53;104.32;;;;;;;11.67;100.00;102573.63;4966217;28;20054;-88
2022/11/13 12:44:07;;;;;;;;;;;;;;;;;;;;;
2022/11/13 13:07:43;;;;;;;107.63;98.45;;;;;;;12.43;100.00;102555.50;4802401;29;20065;-90
2022/11/13 15:23:27;;;;;;;122.93;96.57;;;;;;;7.70;100.00;102501.59;4981349;28;20049;-82
2022/11/13 15:25:54;;;;;;;161.90;117.20;;;;;;;7.74;100.00;102495.84;4996295;28;20078;-87
2022/11/13 15:28:21;;;;;;;129.77;109.60;;;;;;;7.86;100.00;102500.97;5017812;28;20042;-84
2022/11/13 15:30:54;;;;;;;119.35;100.15;;;;;;;7.68;100.00;102491.16;5058152;28;20044;-85
2022/11/13 15:33:21;;;;;;;122.32;99.15;;;;;;;7.66;100.00;102492.28;5032663;28;20046;-84
2022/11/13 15:35:49;;;;;;;160.80;110.57;;;;;;;7.79;100.00;102498.09;5046118;28;20135;-85
2022/11/13 15:38:21;;;;;;;144.13;103.15;;;;;;;7.56;100.00;102495.78;5053097;28;20045;-84
2022/11/13 15:40:50;;;;;;;151.40;102.55;;;;;;;7.43;100.00;102500.53;5053348;28;20049;-85
2022/11/13 15:43:29;;;;;;;122.75;91.80;;;;;;;7.15;100.00;102506.69;5041047;28;20061;-87
2022/11/13 15:45:58;;;;;;;124.78;97.10;;;;;;;7.30;100.00;102511.41;5042468;28;20053;-83
2022/11/13 15:48:25;;;;;;;118.13;93.18;;;;;;;7.19;100.00;102511.53;5050678;28;20029;-84
2022/11/13 15:50:54;;;;;;;112.80;92.75;;;;;;;7.22;100.00;102510.44;5044417;28;20054;-83
2022/11/13 15:53:21;;;;;;;126.35;100.53;;;;;;;7.09;100.00;102510.72;5053005;28;20503;-84
2022/11/13 15:56:03;;;;;;;142.30;119.03;;;;;;;7.24;100.00;102508.50;5037484;28;20049;-85
2022/11/13 15:58:33;;;;;;;146.15;116.85;;;;;;;7.26;100.00;102510.03;5050661;28;20056;-84
2022/11/13 16:01:01;;;;;;;137.77;113.28;;;;;;;7.21;100.00;102516.72;5035786;28;20062;-85
2022/11/13 16:03:30;;;;;;;130.25;110.80;;;;;;;6.68;100.00;102515.25;5033970;28;20575;-85
2022/11/13 16:05:59;;;;;;;131.93;110.38;;;;;;;6.85;100.00;102514.59;5042465;28;20062;-84
2022/11/13 16:08:27;;;;;;;132.60;107.55;;;;;;;6.75;100.00;102512.94;5059444;28;20037;-84
2022/11/13 16:10:54;;;;;;;119.13;98.82;;;;;;;6.87;100.00;102515.31;5040681;28;20053;-83
2022/11/13 16:13:22;;;;;;;141.57;120.45;;;;;;;6.98;100.00;102511.69;5031757;28;20060;-84
2022/11/13 16:15:49;;;;;;;143.30;114.05;;;;;;;6.80;100.00;102508.88;5029104;28;20054;-85
2022/11/13 16:18:28;;;;;;;161.93;128.27;;;;;;;6.56;100.00;102522.47;5042004;28;20033;-84
2022/11/13 16:21:14;;;;;;;181.75;136.27;;;;;;;6.51;100.00;102513.31;5052507;28;20049;-84
2022/11/13 16:23:41;;;;;;;159.57;131.35;;;;;;;6.51;100.00;102516.78;5029203;28;21426;-84
2022/11/13 16:26:14;;;;;;;186.57;151.88;;;;;;;6.43;100.00;102517.44;5024457;28;20485;-85
2022/11/13 16:28:42;;;;;;;185.75;142.48;;;;;;;6.37;100.00;102525.88;5025871;28;20050;-84
2022/11/13 16:31:09;;;;;;;203.98;154.00;;;;;;;6.11;100.00;102519.41;5033305;28;20049;-85
2022/11/13 16:33:36;;;;;;;211.23;156.00;;;;;;;6.26;100.00;102514.59;5031758;28;20053;-86
2022/11/13 16:36:02;;;;;;;209.20;160.13;;;;;;;6.42;100.00;102517.59;5024088;28;20112;-86
2022/11/13 16:38:29;;;;;;;201.40;162.60;;;;;;;6.53;100.00;102513.97;5035592;28;20104;-83
2022/11/13 16:40:56;;;;;;;206.18;147.32;;;;;;;6.11;100.00;102517.63;5034197;28;20049;-84
2022/11/13 16:43:23;;;;;;;210.75;150.07;;;;;;;5.86;100.00;102510.91;5031063;28;20103;-84
2022/11/13 16:45:52;;;;;;;212.43;144.98;;;;;;;5.96;100.00;102518.91;5034736;28;20060;-85
2022/11/13 16:48:29;;;;;;;224.38;147.23;;;;;;;5.81;100.00;102522.81;5033801;28;20453;-85
2022/11/13 16:50:56;;;;;;;198.00;140.10;;;;;;;5.86;100.00;102523.28;5021709;28;20056;-85
2022/11/13 16:53:30;;;;;;;202.88;141.07;;;;;;;5.96;100.00;102509.22;5017821;28;20046;-86
2022/11/13 16:56:00;;;;;;;202.25;139.48;;;;;;;5.97;100.00;102517.97;5015063;28;20467;-85
2022/11/13 16:58:33;;;;;;;218.90;145.32;;;;;;;5.53;100.00;102524.31;5014889;28;20054;-85
2022/11/13 17:01:02;;;;;;;220.45;141.38;;;;;;;5.63;100.00;102520.81;5020340;28;20049;-85
2022/11/13 17:03:28;;;;;;;220.45;153.40;;;;;;;5.62;100.00;102521.75;5028391;28;20072;-85
2022/11/13 17:05:55;;;;;;;199.48;144.68;;;;;;;5.78;100.00;102528.34;5024065;28;20046;-85
2022/11/13 17:08:22;;;;;;;214.02;149.93;;;;;;;5.87;100.00;102520.53;5023315;28;20056;-85
2022/11/13 17:10:56;;;;;;;236.95;161.50;;;;;;;5.92;100.00;102517.47;5031484;28;20481;-85
2022/11/13 17:13:23;;;;;;;229.68;160.63;;;;;;;5.76;100.00;102514.50;5028352;28;20057;-85
2022/11/13 17:15:49;;;;;;;188.38;131.98;;;;;;;5.24;100.00;102519.69;5022077;28;20058;-85
2022/11/13 17:18:17;;;;;;;194.68;132.73;;;;;;;5.35;100.00;102529.34;5026816;28;20068;-83
2022/11/13 17:20:44;;;;;;;182.82;133.05;;;;;;;5.32;100.00;102519.03;5022573;28;20108;-84
2022/11/13 17:23:14;;;;;;;192.57;130.55;;;;;;;5.46;100.00;102522.22;5024068;28;20053;-84
2022/11/13 17:25:41;;;;;;;201.77;140.75;;;;;;;5.59;100.00;102518.53;5014276;28;20137;-84
2022/11/13 17:28:08;;;;;;;182.65;136.48;;;;;;;5.47;100.00;102523.03;5016848;28;20053;-83
2022/11/13 17:30:35;;;;;;;197.82;132.15;;;;;;;5.02;100.00;102516.19;5027012;28;20057;-85
2022/11/13 17:33:02;;;;;;;181.32;124.28;;;;;;;5.16;100.00;102515.03;5022945;28;20123;-86
2022/11/13 17:35:31;;;;;;;179.82;119.00;;;;;;;5.31;100.00;102512.13;5036583;28;20060;-84
2022/11/13 17:37:58;;;;;;;180.07;118.38;;;;;;;4.84;100.00;102512.41;5041202;28;20050;-86
2022/11/13 17:40:25;;;;;;;172.90;108.13;;;;;;;4.93;100.00;102505.56;5018881;28;20064;-86
2022/11/13 17:42:51;;;;;;;154.88;107.32;;;;;;;5.13;100.00;102511.84;5017175;28;20470;-86
2022/11/13 17:45:20;;;;;;;163.90;106.68;;;;;;;5.27;100.00;102525.53;5036495;28;20466;-84
2022/11/13 17:47:50;;;;;;;160.70;105.97;;;;;;;5.17;100.00;102531.69;5055384;28;20061;-85
2022/11/13 17:50:23;;;;;;;188.25;117.03;;;;;;;4.95;100.00;102520.28;5049148;28;20040;-84
2022/11/13 17:52:51;;;;;;;173.32;112.45;;;;;;;5.09;100.00;102518.31;5030726;28;20054;-84
2022/11/13 17:55:20;;;;;;;158.32;102.22;;;;;;;4.92;100.00;102507.34;5039959;28;20053;-85
2022/11/13 17:57:47;;;;;;;151.02;99.32;;;;;;;4.82;100.00;102502.00;5047153;28;20054;-84
2022/11/13 18:00:20;;;;;;;162.93;101.93;;;;;;;4.63;100.00;102512.38;5019760;28;20038;-84
2022/11/13 18:02:47;;;;;;;161.13;104.88;;;;;;;4.67;100.00;102505.06;5026959;28;20045;-86
2022/11/13 18:05:13;;;;;;;170.13;109.45;;;;;;;4.78;100.00;102510.25;5023014;28;20426;-85
2022/11/13 18:07:40;;;;;;;164.63;103.82;;;;;;;4.87;100.00;102498.16;5024965;28;20060;-86
2022/11/13 18:10:10;;;;;;;188.50;107.70;;;;;;;5.00;100.00;102506.75;5022005;28;20061;-87
2022/11/13 18:12:37;;;;;;;231.38;137.55;;;;;;;4.95;100.00;102504.47;5050369;28;20042;-84
2022/11/13 18:15:05;;;;;;;226.68;140.50;;;;;;;4.85;100.00;102508.00;5030422;28;20053;-84
2022/11/13 18:17:31;;;;;;;252.23;128.93;;;;;;;4.77;100.00;102498.06;5023212;28;20391;-85
2022/11/13 18:19:58;;;;;;;241.20;113.38;;;;;;;4.76;100.00;102507.78;5024776;28;20049;-85
2022/11/13 18:22:25;;;;;;;202.98;103.32;;;;;;;4.74;100.00;102504.41;5027651;28;20037;-84
2022/11/13 18:24:54;;;;;;;207.93;108.47;;;;;;;4.90;100.00;102495.28;5034590;28;20053;-84
2022/11/13 18:27:33;;;;;;;269.35;128.70;;;;;;;4.97;100.00;102493.81;5052342;28;20045;-84
2022/11/13 18:30:01;;;;;;;274.02;141.70;;;;;;;5.00;100.00;102501.47;5034106;28;20085;-83
2022/11/13 18:32:36;;;;;;;266.08;122.95;;;;;;;5.02;100.00;102502.16;5050027;28;20057;-84
2022/11/13 18:35:06;;;;;;;211.40;108.75;;;;;;;5.00;100.00;102496.22;5034896;28;20050;-83
2022/11/13 18:37:33;;;;;;;184.15;107.32;;;;;;;5.09;100.00;102505.16;5050546;28;20040;-83
2022/11/13 18:40:01;;;;;;;197.15;100.43;;;;;;;4.99;100.00;102495.38;5053143;28;20085;-84
2022/11/13 18:42:28;;;;;;;211.43;103.95;;;;;;;4.94;100.00;102497.53;5054949;28;20501;-85
2022/11/13 18:44:56;;;;;;;174.40;95.00;;;;;;;5.18;100.00;102504.41;5023824;28;20041;-85
2022/11/13 18:47:23;;;;;;;201.52;97.63;;;;;;;5.28;100.00;102505.28;5024504;28;20057;-85
2022/11/13 18:49:50;;;;;;;210.13;104.28;;;;;;;5.24;100.00;102514.44;5024940;28;20045;-85
2022/11/13 18:52:17;;;;;;;345.35;142.95;;;;;;;5.35;100.00;102513.53;5016985;28;20458;-86
2022/11/13 18:54:43;;;;;;;314.77;140.15;;;;;;;5.36;100.00;102507.31;5027249;28;20586;-86
2022/11/13 18:57:10;;;;;;;344.27;146.95;;;;;;;5.48;100.00;102509.75;5014570;28;20049;-85
2022/11/13 18:59:37;;;;;;;383.30;163.85;;;;;;;5.58;100.00;102511.59;5019417;28;20061;-86
2022/11/13 19:02:05;;;;;;;405.85;168.98;;;;;;;5.65;100.00;102512.75;5043515;28;20063;-86
2022/11/13 19:04:34;;;;;;;382.67;165.02;;;;;;;5.63;100.00;102515.53;5022658;28;20124;-84
2022/11/13 19:07:01;;;;;;;387.15;178.48;;;;;;;5.70;100.00;102503.50;5025572;28;20535;-84
2022/11/13 19:09:28;;;;;;;450.35;196.52;;;;;;;5.49;100.00;102508.78;5023214;28;20045;-85
2022/11/13 19:12:08;;;;;;;492.08;210.25;;;;;;;5.63;100.00;102507.63;5036233;28;20053;-84
2022/11/13 19:14:53;;;;;;;382.83;197.57;;;;;;;5.70;100.00;102514.03;5039023;28;20038;-84
2022/11/13 19:17:34;;;;;;;436.65;207.05;;;;;;;5.66;100.00;102511.81;5039498;28;20076;-84
2022/11/13 19:20:04;;;;;;;382.25;166.55;;;;;;;5.71;100.00;102507.78;5039323;28;20054;-84
2022/11/13 19:22:34;;;;;;;394.70;160.88;;;;;;;5.71;100.00;102515.69;5042426;28;20061;-83
2022/11/13 19:25:02;;;;;;;398.23;165.35;;;;;;;5.66;100.00;102517.06;5048948;28;20049;-85
2022/11/13 19:27:29;;;;;;;294.90;147.15;;;;;;;5.73;100.00;102513.78;5038648;28;20045;-86
2022/11/13 19:29:56;;;;;;;371.83;178.90;;;;;;;5.78;100.00;102510.75;5025934;28;20065;-86
2022/11/13 19:32:23;;;;;;;419.60;181.10;;;;;;;5.48;100.00;102506.28;5027732;28;20226;-87
2022/11/13 19:34:51;;;;;;;347.42;156.77;;;;;;;5.77;100.00;102503.81;5023443;28;20057;-87
2022/11/13 19:37:18;;;;;;;250.48;144.60;;;;;;;5.68;100.00;102494.88;5025824;28;20061;-86
2022/11/13 19:39:44;;;;;;;184.60;119.45;;;;;;;5.66;100.00;102502.09;5026885;28;20371;-87
2022/11/13 19:42:11;;;;;;;200.85;102.43;;;;;;;5.54;100.00;102503.13;5034292;28;20559;-86
2022/11/13 19:44:38;;;;;;;168.35;104.57;;;;;;;5.70;100.00;102498.22;5021335;28;20053;-86
2022/11/13 19:47:05;;;;;;;189.40;101.10;;;;;;;5.59;100.00;102493.00;5022818;28;20119;-86
2022/11/13 19:49:33;;;;;;;195.18;99.00;;;;;;;5.67;100.00;102495.84;5024046;28;20088;-85
2022/11/13 19:52:02;;;;;;;143.18;88.72;;;;;;;5.59;100.00;102497.44;5029734;28;20053;-85
2022/11/13 19:54:29;;;;;;;140.57;93.13;;;;;;;5.50;100.00;102505.16;5025219;28;20465;-85
2022/11/13 19:56:56;;;;;;;178.25;99.00;;;;;;;5.50;100.00;102499.06;5019293;28;20061;-85
2022/11/13 19:59:30;;;;;;;204.77;106.05;;;;;;;5.57;100.00;102491.47;5040057;28;20227;-84
2022/11/13 20:01:58;;;;;;;175.35;100.78;;;;;;;5.66;100.00;102491.53;5058533;28;20050;-84
2022/11/13 20:04:39;;;;;;;194.32;109.28;;;;;;;5.49;100.00;102492.13;5057024;28;20060;-84
2022/11/13 20:07:10;;;;;;;184.48;106.40;;;;;;;5.48;100.00;102499.19;5057553;28;20036;-83
2022/11/13 20:09:48;;;;;;;141.77;88.03;;;;;;;5.48;100.00;102491.28;5036637;28;20068;-84
2022/11/13 20:12:22;;;;;;;147.15;90.25;;;;;;;5.50;100.00;102496.44;5044204;28;20060;-84
2022/11/13 20:14:58;;;;;;;150.02;96.38;;;;;;;5.60;100.00;102484.16;5046033;28;20418;-83
2022/11/13 20:17:25;;;;;;;147.27;93.95;;;;;;;5.56;100.00;102487.16;5034856;28;20111;-85
2022/11/13 20:19:52;;;;;;;172.82;92.82;;;;;;;5.47;100.00;102491.41;5024384;28;20057;-86
2022/11/13 20:22:20;;;;;;;159.48;92.57;;;;;;;5.69;100.00;102493.91;5023168;28;20050;-85
2022/11/13 20:24:46;;;;;;;149.05;92.10;;;;;;;5.60;100.00;102491.19;5023789;28;20057;-86
2022/11/13 20:27:13;;;;;;;149.40;89.25;;;;;;;5.46;100.00;102484.47;5034169;28;20054;-85
2022/11/13 20:29:40;;;;;;;153.77;90.07;;;;;;;5.55;100.00;102482.88;5025719;28;20115;-84
2022/11/13 20:32:07;;;;;;;143.60;85.30;;;;;;;5.43;100.00;102482.94;5026627;28;20053;-84
2022/11/13 20:34:33;;;;;;;133.70;83.10;;;;;;;5.86;100.00;102481.91;5020949;28;20053;-81
2022/11/13 20:37:03;;;;;;;165.32;101.15;;;;;;;6.31;100.00;102473.66;5033127;28;20119;-85
2022/11/13 20:39:31;;;;;;;145.90;88.13;;;;;;;5.57;100.00;102473.88;5034920;28;20060;-85
2022/11/13 20:41:59;;;;;;;154.27;85.28;;;;;;;5.55;100.00;102478.44;5044352;28;20118;-85
2022/11/13 20:44:28;;;;;;;151.52;82.28;;;;;;;5.61;100.00;102479.72;5050286;28;20033;-83
2022/11/13 20:46:56;;;;;;;131.82;81.25;;;;;;;5.78;100.00;102481.75;5060743;28;20075;-84
2022/11/13 20:49:23;;;;;;;164.57;101.05;;;;;;;5.70;100.00;102484.22;5047363;28;20054;-85
2022/11/13 20:51:55;;;;;;;141.63;76.93;;;;;;;5.58;100.00;102466.78;5027430;28;20461;-85
2022/11/13 20:54:23;;;;;;;129.23;78.25;;;;;;;5.58;100.00;102475.53;5028475;28;20049;-84
2022/11/13 20:56:52;;;;;;;138.30;86.07;;;;;;;5.66;100.00;102469.63;5023545;28;20119;-85
2022/11/13 20:59:24;;;;;;;124.85;77.28;;;;;;;5.72;100.00;102471.75;5027972;28;20088;-85
2022/11/13 21:01:51;;;;;;;114.23;78.80;;;;;;;5.61;100.00;102474.44;5025346;28;20119;-84
2022/11/13 21:04:18;;;;;;;114.53;77.50;;;;;;;5.81;100.00;102470.09;5028926;28;20041;-85
2022/11/13 21:06:46;;;;;;;130.85;84.95;;;;;;;5.89;100.00;102472.91;5027360;28;20095;-87
2022/11/13 21:09:13;;;;;;;176.35;108.93;;;;;;;5.92;100.00;102477.91;5019804;28;20042;-85
2022/11/13 21:11:39;;;;;;;168.30;101.70;;;;;;;5.86;100.00;102470.53;5023415;28;20079;-84
2022/11/13 21:14:09;;;;;;;125.50;77.88;;;;;;;5.78;100.00;102470.34;5027322;28;20540;-84
2022/11/13 21:16:36;;;;;;;148.40;85.03;;;;;;;5.76;100.00;102469.66;5028963;28;20359;-84
2022/11/13 21:19:03;;;;;;;151.90;92.82;;;;;;;5.70;100.00;102457.84;5027966;28;20058;-85
2022/11/13 21:21:33;;;;;;;111.40;73.20;;;;;;;5.59;100.00;102464.00;5047664;28;20049;-83
2022/11/13 21:24:00;;;;;;;114.28;67.60;;;;;;;5.62;100.00;102466.38;5040974;28;20111;-85
2022/11/13 21:26:27;;;;;;;110.40;64.80;;;;;;;5.60;100.00;102464.84;5023792;28;20112;-85
2022/11/13 21:28:55;;;;;;;124.70;78.68;;;;;;;5.74;100.00;102464.50;5024808;28;20061;-85
2022/11/13 21:31:24;;;;;;;109.18;74.10;;;;;;;5.79;100.00;102466.75;5026195;28;20060;-85
2022/11/13 21:33:53;;;;;;;118.00;65.65;;;;;;;5.65;100.00;102460.03;5036133;28;20050;-84
2022/11/13 21:36:29;;;;;;;123.90;80.70;;;;;;;5.74;100.00;102464.50;5053466;28;20049;-84
2022/11/13 21:38:59;;;;;;;120.10;75.63;;;;;;;5.57;100.00;102463.34;5056619;28;20052;-83
2022/11/13 21:41:27;;;;;;;151.73;81.38;;;;;;;5.58;100.00;102461.53;5053992;28;20045;-83
2022/11/13 21:43:59;;;;;;;104.85;67.90;;;;;;;5.80;100.00;102465.78;5039221;28;20054;-83
2022/11/13 21:46:29;;;;;;;124.93;71.90;;;;;;;5.69;100.00;102474.63;5031656;28;20042;-85
2022/11/13 21:48:58;;;;;;;130.52;71.60;;;;;;;5.64;100.00;102471.53;5029809;28;20060;-84
2022/11/13 21:51:25;;;;;;;122.47;73.53;;;;;;;5.67;100.00;102468.66;5039187;28;20195;-85
2022/11/13 21:53:52;;;;;;;248.73;123.55;;;;;;;5.60;100.00;102459.56;5031686;28;20390;-84
2022/11/13 21:56:19;;;;;;;185.93;105.40;;;;;;;5.64;100.00;102456.56;5030684;28;20568;-84
2022/11/13 21:58:46;;;;;;;156.52;83.72;;;;;;;5.61;100.00;102456.81;5027820;28;20052;-84
2022/11/13 22:01:13;;;;;;;405.92;177.88;;;;;;;5.71;100.00;102464.78;5030401;28;20449;-84
2022/11/13 22:03:41;;;;;;;212.52;103.10;;;;;;;5.66;100.00;102454.63;5030625;28;20050;-84
2022/11/13 22:06:19;;;;;;;185.70;91.07;;;;;;;5.61;100.00;102451.53;5030703;28;20107;-84
2022/11/13 22:08:53;;;;;;;143.93;75.10;;;;;;;5.45;100.00;102453.81;5029530;28;20056;-84
2022/11/13 22:11:20;;;;;;;149.15;82.15;;;;;;;5.57;100.00;102449.28;5027445;28;20096;-86
2022/11/13 22:13:47;;;;;;;264.85;137.70;;;;;;;5.61;100.00;102461.25;5048437;28;20058;-85
2022/11/13 22:16:14;;;;;;;499.33;212.75;;;;;;;5.48;100.00;102457.03;5029060;28;20049;-84
2022/11/13 22:18:43;;;;;;;229.07;107.00;;;;;;;5.53;100.00;102451.34;5030097;28;20041;-84
2022/11/13 22:21:12;;;;;;;168.30;97.85;;;;;;;5.41;100.00;102449.75;5029389;28;20111;-83
2022/11/13 22:23:39;;;;;;;231.35;118.32;;;;;;;5.53;100.00;102443.44;5030107;28;20079;-83
2022/11/13 22:26:08;;;;;;;180.48;102.10;;;;;;;5.51;100.00;102446.22;5028575;28;20133;-84
2022/11/13 22:28:36;;;;;;;197.07;112.70;;;;;;;5.69;100.00;102449.09;5028571;28;20453;-85
2022/11/13 22:31:03;;;;;;;175.82;102.47;;;;;;;5.72;100.00;102445.38;5030726;28;20437;-84
2022/11/13 22:33:32;;;;;;;169.50;75.43;;;;;;;5.50;100.00;102449.81;5028713;28;20115;-84
2022/11/13 22:36:04;;;;;;;172.82;102.65;;;;;;;5.70;100.00;102442.84;5029646;28;20445;-84
2022/11/13 22:38:32;;;;;;;142.13;70.70;;;;;;;5.44;100.00;102446.88;5029842;28;20049;-84
2022/11/13 22:41:03;;;;;;;114.93;72.82;;;;;;;5.64;100.00;102446.00;5029511;28;20053;-84
2022/11/13 22:43:35;;;;;;;191.43;95.63;;;;;;;5.69;100.00;102451.75;5027293;28;20469;-85
2022/11/13 22:46:06;;;;;;;124.22;81.35;;;;;;;5.59;100.00;102442.94;5032493;28;20462;-84
2022/11/13 22:48:34;;;;;;;129.18;78.38;;;;;;;5.65;100.00;102446.84;5028706;28;20532;-85
2022/11/13 22:51:09;;;;;;;165.02;88.95;;;;;;;5.65;100.00;102441.56;5048757;28;20037;-83
2022/11/13 22:53:36;;;;;;;290.42;178.15;;;;;;;5.56;100.00;102445.81;5060386;28;20033;-83
2022/11/13 22:56:05;;;;;;;147.52;75.43;;;;;;;5.46;100.00;102439.69;5057493;28;20057;-85
2022/11/13 22:58:32;;;;;;;160.05;89.63;;;;;;;5.44;100.00;102449.50;5031796;28;20080;-84
2022/11/13 23:01:04;;;;;;;265.80;133.57;;;;;;;5.44;100.00;102439.78;5028684;28;20088;-85
2022/11/13 23:03:31;;;;;;;151.40;87.53;;;;;;;5.45;100.00;102440.66;5027335;28;20053;-86
2022/11/13 23:06:01;;;;;;;181.23;84.80;;;;;;;5.38;100.00;102434.22;5024116;28;20050;-85
2022/11/13 23:08:29;;;;;;;215.55;115.82;;;;;;;5.51;100.00;102433.06;5033467;28;20504;-86
2022/11/13 23:10:57;;;;;;;186.65;79.07;;;;;;;5.45;100.00;102430.13;5034488;28;20053;-86
2022/11/13 23:13:24;;;;;;;180.50;95.28;;;;;;;5.50;100.00;102434.00;5032981;28;20064;-86
2022/11/13 23:15:51;;;;;;;161.18;71.82;;;;;;;5.47;100.00;102429.00;5032575;28;20049;-86
2022/11/13 23:18:17;;;;;;;156.45;78.10;;;;;;;5.47;100.00;102415.81;5032440;28;20489;-85
2022/11/13 23:20:44;;;;;;;220.40;88.30;;;;;;;5.35;100.00;102422.13;5022484;28;20127;-85
2022/11/13 23:23:11;;;;;;;217.38;99.53;;;;;;;5.36;100.00;102417.72;5028654;28;20057;-84
2022/11/13 23:25:39;;;;;;;182.98;79.30;;;;;;;5.42;100.00;102417.19;5026767;28;20046;-85
2022/11/13 23:28:06;;;;;;;250.35;98.25;;;;;;;5.39;100.00;102413.00;5021943;28;20115;-85
2022/11/13 23:30:32;;;;;;;168.75;89.70;;;;;;;5.32;100.00;102427.66;5029143;28;20464;-85
2022/11/13 23:32:59;;;;;;;212.60;114.07;;;;;;;5.47;100.00;102415.81;5027017;28;20046;-85
2022/11/13 23:35:26;;;;;;;155.80;81.85;;;;;;;5.51;100.00;102419.03;5028276;28;20136;-85
2022/11/13 23:37:53;;;;;;;201.32;81.80;;;;;;;5.54;100.00;102415.28;5027705;28;20049;-85
2022/11/13 23:40:20;;;;;;;148.85;87.30;;;;;;;5.49;100.00;102407.78;5028463;28;20468;-85
2022/11/13 23:42:48;;;;;;;152.20;76.55;;;;;;;5.77;100.00;102416.78;5026913;28;20448;-86
2022/11/13 23:45:15;;;;;;;138.68;81.07;;;;;;;5.80;100.00;102408.59;5025202;28;20058;-84
2022/11/13 23:47:43;;;;;;;131.60;71.68;;;;;;;5.90;100.00;102408.63;5030232;28;20049;-84
2022/11/13 23:50:09;;;;;;;147.98;79.03;;;;;;;5.84;100.00;102411.81;5032832;28;20111;-85
2022/11/13 23:52:36;;;;;;;144.23;77.82;;;;;;;5.65;100.00;102413.41;5026558;28;20441;-85
2022/11/13 23:55:03;;;;;;;150.23;84.60;;;;;;;5.64;100.00;102406.47;5031235;28;20111;-84
2022/11/13 23:57:30;;;;;;;122.03;74.80;;;;;;;5.73;100.00;102405.66;5017942;28;20401;-84
2022/11/13 23:59:58;;;;;;;158.50;80.15;;;;;;;5.90;100.00;102403.34;5025954;28;20050;-84
